This is the latest recevied weather packets stored in our database for station/object K1AWR. If no packets are shown the sender has not sent any weather packets the latest 10 day(s).
| Time | Temp. | Humidity | Pressure | Rain* | Wind** | Luminosity | Snow |
|---|---|---|---|---|---|---|---|
| 1777378666 | 13.33° C | 61% | 1023.1 hPa | 0 mm | - | 253 W/m² | - |
| 1777378363 | 10.56° C | 69% | 1023.2 hPa | 0 mm | - | 130 W/m² | - |
| 1777378058 | 10.56° C | 69% | 1023.1 hPa | 0 mm | - | 130 W/m² | - |
| 1777377758 | 10.56° C | 69% | 1022.9 hPa | 0 mm | - | 41 W/m² | - |
| 1777377452 | 10° C | 70% | 1023.1 hPa | 0 mm | - | 71 W/m² | - |
| 1777377148 | 10° C | 70% | 1023.3 hPa | 0 mm | - | 53 W/m² | - |
| 1777376846 | 10° C | 71% | 1023.3 hPa | 0 mm | - | 40 W/m² | - |
| 1777376543 | 8.89° C | 76% | 1023.3 hPa | 0 mm | - | 65 W/m² | - |
| 1777376239 | 8.33° C | 80% | 1023.2 hPa | 0 mm | - | 49 W/m² | - |
| 1777375934 | 7.22° C | 83% | 1023.1 hPa | 0 mm | - | 41 W/m² | - |
| 1777375629 | 6.67° C | 86% | 1023 hPa | 0 mm | - | 32 W/m² | - |
| 1777375323 | 6.11° C | 89% | 1023 hPa | 0 mm | - | 34 W/m² | - |
| 1777375021 | 6.11° C | 90% | 1022.9 hPa | 0 mm | - | 25 W/m² | - |
| 1777374716 | 5.56° C | 91% | 1022.9 hPa | 0 mm | - | 24 W/m² | - |
| 1777374412 | 5.56° C | 91% | 1023 hPa | 0 mm | - | 23 W/m² | - |
| 1777374110 | 5° C | 92% | 1023 hPa | 0 mm | - | 22 W/m² | - |
| 1777373805 | 5° C | 92% | 1023 hPa | 0 mm | - | 21 W/m² | - |
| 1777373503 | 4.44° C | 92% | 1022.9 hPa | 0 mm | - | 20 W/m² | - |
| 1777373198 | 4.44° C | 92% | 1022.8 hPa | 0 mm | - | 19 W/m² | - |
| 1777372894 | 4.44° C | 92% | 1022.7 hPa | 0 mm | - | 17 W/m² | - |
| 1777372589 | 3.89° C | 92% | 1022.7 hPa | 0 mm | - | 16 W/m² | - |
| 1777372289 | 3.89° C | 92% | 1022.8 hPa | 0 mm | - | 15 W/m² | - |
| 1777371987 | 3.89° C | 92% | 1023.1 hPa | 0 mm | - | 13 W/m² | - |
| 1777371684 | 3.89° C | 92% | 1022.9 hPa | 0 mm | - | 12 W/m² | - |
| 1777371381 | 3.89° C | 92% | 1022.7 hPa | 0 mm | - | 10 W/m² | - |
* Rain latest hour (hover to see other rain measurements)
** Current wind speed in m/s (hover to see current wind gust speed)